sensor_id;sensor_type;location;lat;lon;timestamp;P1;durP1;ratioP1;P2;durP2;ratioP2
15126;SDS011;7664;52.008;4.748;2024-02-26T00:00:00;3.35;;;2.20;;
15126;SDS011;7664;52.008;4.748;2024-02-26T00:02:30;2.25;;;2.03;;
15126;SDS011;7664;52.008;4.748;2024-02-26T00:05:04;2.72;;;2.30;;
15126;SDS011;7664;52.008;4.748;2024-02-26T00:07:34;2.97;;;2.30;;
15126;SDS011;7664;52.008;4.748;2024-02-26T00:10:03;4.30;;;2.45;;
15126;SDS011;7664;52.008;4.748;2024-02-26T00:12:32;5.78;;;3.13;;
15126;SDS011;7664;52.008;4.748;2024-02-26T00:15:00;4.90;;;2.45;;
15126;SDS011;7664;52.008;4.748;2024-02-26T00:17:31;4.38;;;2.33;;
15126;SDS011;7664;52.008;4.748;2024-02-26T00:20:00;5.63;;;2.40;;
15126;SDS011;7664;52.008;4.748;2024-02-26T00:22:30;6.35;;;3.55;;
15126;SDS011;7664;52.008;4.748;2024-02-26T00:25:00;6.45;;;2.35;;
15126;SDS011;7664;52.008;4.748;2024-02-26T00:27:29;4.45;;;2.50;;
15126;SDS011;7664;52.008;4.748;2024-02-26T00:29:58;3.45;;;2.50;;
15126;SDS011;7664;52.008;4.748;2024-02-26T00:32:27;4.20;;;2.95;;
15126;SDS011;7664;52.008;4.748;2024-02-26T00:34:55;3.03;;;2.20;;
15126;SDS011;7664;52.008;4.748;2024-02-26T00:37:24;5.03;;;2.97;;
15126;SDS011;7664;52.008;4.748;2024-02-26T00:39:52;4.78;;;3.05;;
15126;SDS011;7664;52.008;4.748;2024-02-26T00:42:22;7.30;;;2.88;;
15126;SDS011;7664;52.008;4.748;2024-02-26T00:44:51;3.88;;;2.80;;
15126;SDS011;7664;52.008;4.748;2024-02-26T00:47:19;16.45;;;3.25;;
15126;SDS011;7664;52.008;4.748;2024-02-26T00:49:48;5.55;;;3.30;;
15126;SDS011;7664;52.008;4.748;2024-02-26T00:52:16;4.95;;;3.10;;
15126;SDS011;7664;52.008;4.748;2024-02-26T00:54:45;4.35;;;2.75;;
15126;SDS011;7664;52.008;4.748;2024-02-26T00:57:13;5.55;;;3.22;;
15126;SDS011;7664;52.008;4.748;2024-02-26T00:59:44;3.42;;;2.65;;
15126;SDS011;7664;52.008;4.748;2024-02-26T01:02:12;4.43;;;3.28;;
15126;SDS011;7664;52.008;4.748;2024-02-26T01:04:41;3.47;;;2.63;;
15126;SDS011;7664;52.008;4.748;2024-02-26T01:07:09;5.20;;;3.40;;
15126;SDS011;7664;52.008;4.748;2024-02-26T01:09:38;5.13;;;2.83;;
15126;SDS011;7664;52.008;4.748;2024-02-26T01:12:07;6.80;;;3.53;;
15126;SDS011;7664;52.008;4.748;2024-02-26T01:14:35;4.93;;;2.80;;
15126;SDS011;7664;52.008;4.748;2024-02-26T01:17:05;4.40;;;3.05;;
15126;SDS011;7664;52.008;4.748;2024-02-26T01:19:34;4.43;;;2.85;;
15126;SDS011;7664;52.008;4.748;2024-02-26T01:22:02;3.85;;;2.75;;
15126;SDS011;7664;52.008;4.748;2024-02-26T01:24:31;4.38;;;2.92;;
15126;SDS011;7664;52.008;4.748;2024-02-26T01:27:00;3.53;;;2.85;;
15126;SDS011;7664;52.008;4.748;2024-02-26T01:29:28;5.45;;;3.35;;
15126;SDS011;7664;52.008;4.748;2024-02-26T01:31:57;4.30;;;3.03;;
15126;SDS011;7664;52.008;4.748;2024-02-26T01:34:27;4.40;;;3.38;;
15126;SDS011;7664;52.008;4.748;2024-02-26T01:36:55;5.00;;;3.15;;
15126;SDS011;7664;52.008;4.748;2024-02-26T01:39:24;7.28;;;3.50;;
15126;SDS011;7664;52.008;4.748;2024-02-26T01:41:54;4.20;;;3.17;;
15126;SDS011;7664;52.008;4.748;2024-02-26T01:44:22;3.70;;;3.17;;
15126;SDS011;7664;52.008;4.748;2024-02-26T01:46:51;3.97;;;2.92;;
15126;SDS011;7664;52.008;4.748;2024-02-26T01:49:20;5.10;;;3.42;;
15126;SDS011;7664;52.008;4.748;2024-02-26T01:51:50;3.72;;;3.13;;
15126;SDS011;7664;52.008;4.748;2024-02-26T01:54:19;8.75;;;3.35;;
15126;SDS011;7664;52.008;4.748;2024-02-26T01:56:48;3.95;;;3.28;;
15126;SDS011;7664;52.008;4.748;2024-02-26T01:59:18;5.50;;;3.40;;
15126;SDS011;7664;52.008;4.748;2024-02-26T02:01:48;4.00;;;3.45;;
15126;SDS011;7664;52.008;4.748;2024-02-26T02:04:20;5.03;;;3.03;;
15126;SDS011;7664;52.008;4.748;2024-02-26T02:06:50;4.90;;;3.58;;
15126;SDS011;7664;52.008;4.748;2024-02-26T02:09:20;5.38;;;3.10;;
15126;SDS011;7664;52.008;4.748;2024-02-26T02:11:49;4.05;;;3.20;;
15126;SDS011;7664;52.008;4.748;2024-02-26T02:14:18;4.63;;;3.28;;
15126;SDS011;7664;52.008;4.748;2024-02-26T02:16:46;4.80;;;3.28;;
15126;SDS011;7664;52.008;4.748;2024-02-26T02:19:15;5.47;;;3.58;;
15126;SDS011;7664;52.008;4.748;2024-02-26T02:21:45;7.35;;;3.33;;
15126;SDS011;7664;52.008;4.748;2024-02-26T02:24:13;5.97;;;3.72;;
15126;SDS011;7664;52.008;4.748;2024-02-26T02:26:42;4.63;;;3.72;;
15126;SDS011;7664;52.008;4.748;2024-02-26T02:29:11;6.13;;;4.45;;
15126;SDS011;7664;52.008;4.748;2024-02-26T02:31:39;4.70;;;3.58;;
15126;SDS011;7664;52.008;4.748;2024-02-26T02:34:09;5.30;;;3.58;;
15126;SDS011;7664;52.008;4.748;2024-02-26T02:36:49;4.68;;;3.90;;
15126;SDS011;7664;52.008;4.748;2024-02-26T02:39:18;7.07;;;4.22;;
15126;SDS011;7664;52.008;4.748;2024-02-26T02:41:47;6.40;;;4.35;;
15126;SDS011;7664;52.008;4.748;2024-02-26T02:44:15;7.68;;;4.85;;
15126;SDS011;7664;52.008;4.748;2024-02-26T02:46:44;5.47;;;4.25;;
15126;SDS011;7664;52.008;4.748;2024-02-26T02:49:12;7.07;;;4.05;;
15126;SDS011;7664;52.008;4.748;2024-02-26T02:51:41;6.30;;;4.13;;
15126;SDS011;7664;52.008;4.748;2024-02-26T02:54:11;8.20;;;4.32;;
15126;SDS011;7664;52.008;4.748;2024-02-26T02:56:39;5.70;;;4.32;;
15126;SDS011;7664;52.008;4.748;2024-02-26T02:59:08;6.60;;;4.40;;
15126;SDS011;7664;52.008;4.748;2024-02-26T03:01:36;8.98;;;5.25;;
15126;SDS011;7664;52.008;4.748;2024-02-26T03:04:05;7.72;;;4.95;;
15126;SDS011;7664;52.008;4.748;2024-02-26T03:06:33;7.22;;;4.15;;
15126;SDS011;7664;52.008;4.748;2024-02-26T03:09:02;6.05;;;4.03;;
15126;SDS011;7664;52.008;4.748;2024-02-26T03:11:32;6.93;;;4.60;;
15126;SDS011;7664;52.008;4.748;2024-02-26T03:14:01;6.63;;;4.68;;
15126;SDS011;7664;52.008;4.748;2024-02-26T03:16:31;5.32;;;4.13;;
15126;SDS011;7664;52.008;4.748;2024-02-26T03:19:00;10.57;;;4.68;;
15126;SDS011;7664;52.008;4.748;2024-02-26T03:21:29;7.40;;;4.65;;
15126;SDS011;7664;52.008;4.748;2024-02-26T03:23:58;8.50;;;4.85;;
15126;SDS011;7664;52.008;4.748;2024-02-26T03:26:27;6.90;;;5.00;;
15126;SDS011;7664;52.008;4.748;2024-02-26T03:28:59;10.48;;;4.57;;
15126;SDS011;7664;52.008;4.748;2024-02-26T03:31:29;8.32;;;5.50;;
15126;SDS011;7664;52.008;4.748;2024-02-26T03:33:58;7.03;;;5.28;;
15126;SDS011;7664;52.008;4.748;2024-02-26T03:36:27;8.32;;;5.40;;
15126;SDS011;7664;52.008;4.748;2024-02-26T03:38:55;7.57;;;5.22;;
15126;SDS011;7664;52.008;4.748;2024-02-26T03:41:25;7.65;;;5.45;;
15126;SDS011;7664;52.008;4.748;2024-02-26T03:43:53;6.25;;;4.68;;
15126;SDS011;7664;52.008;4.748;2024-02-26T03:46:24;7.80;;;4.60;;
15126;SDS011;7664;52.008;4.748;2024-02-26T03:48:52;8.50;;;5.03;;
15126;SDS011;7664;52.008;4.748;2024-02-26T03:51:21;7.82;;;5.20;;
15126;SDS011;7664;52.008;4.748;2024-02-26T03:53:50;8.30;;;5.22;;
15126;SDS011;7664;52.008;4.748;2024-02-26T03:56:18;7.35;;;4.97;;
15126;SDS011;7664;52.008;4.748;2024-02-26T03:58:49;9.77;;;5.85;;
15126;SDS011;7664;52.008;4.748;2024-02-26T04:01:22;7.38;;;5.15;;
15126;SDS011;7664;52.008;4.748;2024-02-26T04:03:51;8.70;;;5.05;;
15126;SDS011;7664;52.008;4.748;2024-02-26T04:06:20;7.53;;;4.95;;
15126;SDS011;7664;52.008;4.748;2024-02-26T04:08:49;9.60;;;5.28;;
15126;SDS011;7664;52.008;4.748;2024-02-26T04:11:17;8.35;;;5.45;;
15126;SDS011;7664;52.008;4.748;2024-02-26T04:13:46;8.20;;;5.45;;
15126;SDS011;7664;52.008;4.748;2024-02-26T04:16:16;7.78;;;5.07;;
15126;SDS011;7664;52.008;4.748;2024-02-26T04:18:44;7.50;;;5.30;;
15126;SDS011;7664;52.008;4.748;2024-02-26T04:21:15;11.13;;;5.72;;
15126;SDS011;7664;52.008;4.748;2024-02-26T04:23:44;8.10;;;5.35;;
15126;SDS011;7664;52.008;4.748;2024-02-26T04:26:12;8.48;;;5.00;;
15126;SDS011;7664;52.008;4.748;2024-02-26T04:28:41;7.88;;;5.25;;
15126;SDS011;7664;52.008;4.748;2024-02-26T04:31:09;9.57;;;6.28;;
15126;SDS011;7664;52.008;4.748;2024-02-26T04:33:38;9.50;;;5.90;;
15126;SDS011;7664;52.008;4.748;2024-02-26T04:36:12;9.90;;;5.70;;
15126;SDS011;7664;52.008;4.748;2024-02-26T04:38:44;11.20;;;6.45;;
15126;SDS011;7664;52.008;4.748;2024-02-26T04:41:13;9.07;;;5.75;;
15126;SDS011;7664;52.008;4.748;2024-02-26T04:43:41;9.02;;;6.35;;
15126;SDS011;7664;52.008;4.748;2024-02-26T04:46:10;9.18;;;5.68;;
15126;SDS011;7664;52.008;4.748;2024-02-26T04:48:38;9.80;;;6.38;;
15126;SDS011;7664;52.008;4.748;2024-02-26T04:51:08;17.15;;;7.85;;
15126;SDS011;7664;52.008;4.748;2024-02-26T04:53:37;13.50;;;7.32;;
15126;SDS011;7664;52.008;4.748;2024-02-26T04:56:07;11.45;;;6.28;;
15126;SDS011;7664;52.008;4.748;2024-02-26T04:58:35;9.70;;;6.20;;
15126;SDS011;7664;52.008;4.748;2024-02-26T05:01:04;10.30;;;6.25;;
15126;SDS011;7664;52.008;4.748;2024-02-26T05:03:33;9.18;;;6.10;;
15126;SDS011;7664;52.008;4.748;2024-02-26T05:06:03;11.20;;;7.18;;
15126;SDS011;7664;52.008;4.748;2024-02-26T05:08:31;13.27;;;6.50;;
15126;SDS011;7664;52.008;4.748;2024-02-26T05:11:04;10.65;;;7.28;;
15126;SDS011;7664;52.008;4.748;2024-02-26T05:13:34;10.75;;;6.40;;
15126;SDS011;7664;52.008;4.748;2024-02-26T05:16:03;9.57;;;6.18;;
15126;SDS011;7664;52.008;4.748;2024-02-26T05:18:32;9.38;;;5.90;;
15126;SDS011;7664;52.008;4.748;2024-02-26T05:21:00;9.57;;;6.47;;
15126;SDS011;7664;52.008;4.748;2024-02-26T05:23:29;9.05;;;5.55;;
15126;SDS011;7664;52.008;4.748;2024-02-26T05:25:58;9.30;;;5.78;;
15126;SDS011;7664;52.008;4.748;2024-02-26T05:28:27;10.70;;;6.57;;
15126;SDS011;7664;52.008;4.748;2024-02-26T05:31:05;9.02;;;5.88;;
15126;SDS011;7664;52.008;4.748;2024-02-26T05:33:34;9.30;;;5.82;;
15126;SDS011;7664;52.008;4.748;2024-02-26T05:36:02;8.82;;;5.78;;
15126;SDS011;7664;52.008;4.748;2024-02-26T05:38:31;11.13;;;6.45;;
15126;SDS011;7664;52.008;4.748;2024-02-26T05:41:00;10.23;;;6.40;;
15126;SDS011;7664;52.008;4.748;2024-02-26T05:43:31;10.20;;;6.80;;
15126;SDS011;7664;52.008;4.748;2024-02-26T05:46:03;10.13;;;6.20;;
15126;SDS011;7664;52.008;4.748;2024-02-26T05:48:33;9.93;;;6.78;;
15126;SDS011;7664;52.008;4.748;2024-02-26T05:51:02;11.30;;;6.72;;
15126;SDS011;7664;52.008;4.748;2024-02-26T05:53:32;9.07;;;6.25;;
15126;SDS011;7664;52.008;4.748;2024-02-26T05:56:01;10.18;;;6.47;;
15126;SDS011;7664;52.008;4.748;2024-02-26T05:58:30;10.85;;;6.63;;
15126;SDS011;7664;52.008;4.748;2024-02-26T06:00:58;11.15;;;7.00;;
15126;SDS011;7664;52.008;4.748;2024-02-26T06:03:27;13.35;;;7.65;;
15126;SDS011;7664;52.008;4.748;2024-02-26T06:05:58;12.00;;;7.75;;
15126;SDS011;7664;52.008;4.748;2024-02-26T06:08:29;10.70;;;7.28;;
15126;SDS011;7664;52.008;4.748;2024-02-26T06:11:04;14.75;;;8.15;;
15126;SDS011;7664;52.008;4.748;2024-02-26T06:13:33;13.57;;;7.25;;
15126;SDS011;7664;52.008;4.748;2024-02-26T06:16:02;11.50;;;6.80;;
15126;SDS011;7664;52.008;4.748;2024-02-26T06:18:30;12.07;;;7.40;;
15126;SDS011;7664;52.008;4.748;2024-02-26T06:21:00;11.90;;;7.20;;
15126;SDS011;7664;52.008;4.748;2024-02-26T06:23:29;12.95;;;7.97;;
15126;SDS011;7664;52.008;4.748;2024-02-26T06:25:58;11.38;;;7.43;;
15126;SDS011;7664;52.008;4.748;2024-02-26T06:28:27;13.05;;;8.35;;
15126;SDS011;7664;52.008;4.748;2024-02-26T06:30:58;12.88;;;7.88;;
15126;SDS011;7664;52.008;4.748;2024-02-26T06:33:28;11.70;;;7.38;;
15126;SDS011;7664;52.008;4.748;2024-02-26T06:35:57;14.00;;;8.45;;
15126;SDS011;7664;52.008;4.748;2024-02-26T06:38:27;12.82;;;8.00;;
15126;SDS011;7664;52.008;4.748;2024-02-26T06:40:56;15.25;;;8.27;;
15126;SDS011;7664;52.008;4.748;2024-02-26T06:43:24;14.77;;;8.48;;
15126;SDS011;7664;52.008;4.748;2024-02-26T06:45:53;14.82;;;8.15;;
15126;SDS011;7664;52.008;4.748;2024-02-26T06:48:22;15.82;;;8.77;;
15126;SDS011;7664;52.008;4.748;2024-02-26T06:50:51;15.60;;;8.77;;
15126;SDS011;7664;52.008;4.748;2024-02-26T06:53:20;14.70;;;8.43;;
15126;SDS011;7664;52.008;4.748;2024-02-26T06:55:50;13.13;;;8.07;;
15126;SDS011;7664;52.008;4.748;2024-02-26T06:58:19;14.85;;;8.13;;
15126;SDS011;7664;52.008;4.748;2024-02-26T07:00:47;16.65;;;9.07;;
15126;SDS011;7664;52.008;4.748;2024-02-26T07:03:16;14.93;;;8.60;;
15126;SDS011;7664;52.008;4.748;2024-02-26T07:05:44;18.23;;;10.88;;
15126;SDS011;7664;52.008;4.748;2024-02-26T07:08:13;14.93;;;9.05;;
15126;SDS011;7664;52.008;4.748;2024-02-26T07:10:42;17.15;;;10.38;;
15126;SDS011;7664;52.008;4.748;2024-02-26T07:13:12;16.65;;;10.35;;
15126;SDS011;7664;52.008;4.748;2024-02-26T07:15:41;20.20;;;10.60;;
15126;SDS011;7664;52.008;4.748;2024-02-26T07:18:09;17.88;;;10.35;;
15126;SDS011;7664;52.008;4.748;2024-02-26T07:20:38;18.02;;;10.18;;
15126;SDS011;7664;52.008;4.748;2024-02-26T07:23:06;17.85;;;10.13;;
15126;SDS011;7664;52.008;4.748;2024-02-26T07:25:35;21.60;;;11.18;;
15126;SDS011;7664;52.008;4.748;2024-02-26T07:28:04;15.55;;;9.82;;
15126;SDS011;7664;52.008;4.748;2024-02-26T07:30:34;18.52;;;11.77;;
15126;SDS011;7664;52.008;4.748;2024-02-26T07:33:03;18.42;;;11.00;;
15126;SDS011;7664;52.008;4.748;2024-02-26T07:35:31;20.42;;;12.02;;
15126;SDS011;7664;52.008;4.748;2024-02-26T07:38:00;19.92;;;11.50;;
15126;SDS011;7664;52.008;4.748;2024-02-26T07:40:29;19.05;;;11.25;;
15126;SDS011;7664;52.008;4.748;2024-02-26T07:42:58;21.42;;;12.75;;
15126;SDS011;7664;52.008;4.748;2024-02-26T07:45:27;20.02;;;12.15;;
15126;SDS011;7664;52.008;4.748;2024-02-26T07:47:57;19.35;;;11.50;;
15126;SDS011;7664;52.008;4.748;2024-02-26T07:50:25;21.35;;;13.15;;
15126;SDS011;7664;52.008;4.748;2024-02-26T07:52:54;19.98;;;12.02;;
15126;SDS011;7664;52.008;4.748;2024-02-26T07:55:23;20.08;;;12.35;;
15126;SDS011;7664;52.008;4.748;2024-02-26T07:57:51;19.67;;;11.80;;
15126;SDS011;7664;52.008;4.748;2024-02-26T08:00:20;19.67;;;12.00;;
15126;SDS011;7664;52.008;4.748;2024-02-26T08:02:48;18.80;;;13.05;;
15126;SDS011;7664;52.008;4.748;2024-02-26T08:05:18;16.20;;;11.07;;
15126;SDS011;7664;52.008;4.748;2024-02-26T08:07:47;19.13;;;11.55;;
15126;SDS011;7664;52.008;4.748;2024-02-26T08:10:15;15.48;;;9.95;;
15126;SDS011;7664;52.008;4.748;2024-02-26T08:12:44;15.65;;;9.77;;
15126;SDS011;7664;52.008;4.748;2024-02-26T08:15:13;15.68;;;10.00;;
15126;SDS011;7664;52.008;4.748;2024-02-26T08:17:41;16.40;;;10.52;;
15126;SDS011;7664;52.008;4.748;2024-02-26T08:20:11;14.77;;;8.70;;
15126;SDS011;7664;52.008;4.748;2024-02-26T08:22:41;13.98;;;10.13;;
15126;SDS011;7664;52.008;4.748;2024-02-26T08:25:10;14.63;;;8.98;;
15126;SDS011;7664;52.008;4.748;2024-02-26T08:27:38;14.13;;;9.35;;
15126;SDS011;7664;52.008;4.748;2024-02-26T08:30:08;17.90;;;8.88;;
15126;SDS011;7664;52.008;4.748;2024-02-26T08:32:39;11.80;;;7.82;;
15126;SDS011;7664;52.008;4.748;2024-02-26T08:35:09;14.10;;;8.95;;
15126;SDS011;7664;52.008;4.748;2024-02-26T08:37:37;15.57;;;9.23;;
15126;SDS011;7664;52.008;4.748;2024-02-26T08:40:09;14.70;;;9.20;;
15126;SDS011;7664;52.008;4.748;2024-02-26T08:42:37;13.57;;;8.65;;
15126;SDS011;7664;52.008;4.748;2024-02-26T08:45:07;11.23;;;8.25;;
15126;SDS011;7664;52.008;4.748;2024-02-26T08:47:36;11.15;;;8.13;;
15126;SDS011;7664;52.008;4.748;2024-02-26T08:50:04;11.40;;;7.43;;
15126;SDS011;7664;52.008;4.748;2024-02-26T08:52:35;11.88;;;7.78;;
15126;SDS011;7664;52.008;4.748;2024-02-26T08:55:04;12.95;;;7.07;;
15126;SDS011;7664;52.008;4.748;2024-02-26T08:57:36;11.15;;;7.88;;
15126;SDS011;7664;52.008;4.748;2024-02-26T09:00:05;11.55;;;6.78;;
15126;SDS011;7664;52.008;4.748;2024-02-26T09:02:34;12.63;;;7.43;;
15126;SDS011;7664;52.008;4.748;2024-02-26T09:05:05;12.02;;;7.60;;
15126;SDS011;7664;52.008;4.748;2024-02-26T09:07:33;11.25;;;6.10;;
15126;SDS011;7664;52.008;4.748;2024-02-26T09:10:02;9.35;;;5.65;;
15126;SDS011;7664;52.008;4.748;2024-02-26T09:12:31;9.43;;;6.00;;
15126;SDS011;7664;52.008;4.748;2024-02-26T09:15:01;8.68;;;5.75;;
15126;SDS011;7664;52.008;4.748;2024-02-26T09:17:30;12.75;;;5.95;;
15126;SDS011;7664;52.008;4.748;2024-02-26T09:20:01;8.68;;;5.05;;
15126;SDS011;7664;52.008;4.748;2024-02-26T09:22:32;7.78;;;5.10;;
15126;SDS011;7664;52.008;4.748;2024-02-26T09:25:04;9.82;;;5.65;;
15126;SDS011;7664;52.008;4.748;2024-02-26T09:27:33;6.72;;;4.93;;
15126;SDS011;7664;52.008;4.748;2024-02-26T09:30:05;8.20;;;4.78;;
15126;SDS011;7664;52.008;4.748;2024-02-26T09:32:34;8.13;;;4.95;;
15126;SDS011;7664;52.008;4.748;2024-02-26T09:35:03;8.70;;;4.75;;
15126;SDS011;7664;52.008;4.748;2024-02-26T09:37:32;8.18;;;4.80;;
15126;SDS011;7664;52.008;4.748;2024-02-26T09:40:03;6.90;;;4.65;;
15126;SDS011;7664;52.008;4.748;2024-02-26T09:42:32;6.43;;;4.18;;
15126;SDS011;7664;52.008;4.748;2024-02-26T09:45:05;8.30;;;4.80;;
15126;SDS011;7664;52.008;4.748;2024-02-26T09:47:35;6.88;;;4.22;;
15126;SDS011;7664;52.008;4.748;2024-02-26T09:50:05;6.45;;;4.28;;
15126;SDS011;7664;52.008;4.748;2024-02-26T09:52:36;8.10;;;5.15;;
15126;SDS011;7664;52.008;4.748;2024-02-26T09:55:06;8.02;;;4.88;;
15126;SDS011;7664;52.008;4.748;2024-02-26T09:57:36;6.60;;;4.35;;
15126;SDS011;7664;52.008;4.748;2024-02-26T10:00:07;6.53;;;4.22;;
15126;SDS011;7664;52.008;4.748;2024-02-26T10:02:38;6.65;;;4.22;;
15126;SDS011;7664;52.008;4.748;2024-02-26T10:05:07;10.02;;;4.47;;
15126;SDS011;7664;52.008;4.748;2024-02-26T10:07:38;7.53;;;4.82;;
15126;SDS011;7664;52.008;4.748;2024-02-26T10:10:07;5.78;;;3.92;;
15126;SDS011;7664;52.008;4.748;2024-02-26T10:12:36;8.18;;;4.70;;
15126;SDS011;7664;52.008;4.748;2024-02-26T10:15:05;6.30;;;4.15;;
15126;SDS011;7664;52.008;4.748;2024-02-26T10:17:35;6.85;;;4.65;;
15126;SDS011;7664;52.008;4.748;2024-02-26T10:20:11;5.47;;;3.55;;
15126;SDS011;7664;52.008;4.748;2024-02-26T10:22:40;6.88;;;4.40;;
15126;SDS011;7664;52.008;4.748;2024-02-26T10:25:09;6.75;;;4.30;;
15126;SDS011;7664;52.008;4.748;2024-02-26T10:27:37;6.15;;;4.15;;
15126;SDS011;7664;52.008;4.748;2024-02-26T10:30:15;5.43;;;3.95;;
15126;SDS011;7664;52.008;4.748;2024-02-26T10:32:46;8.38;;;5.30;;
15126;SDS011;7664;52.008;4.748;2024-02-26T10:35:15;7.63;;;5.00;;
15126;SDS011;7664;52.008;4.748;2024-02-26T10:37:44;6.43;;;4.10;;
15126;SDS011;7664;52.008;4.748;2024-02-26T10:40:13;7.43;;;4.85;;
15126;SDS011;7664;52.008;4.748;2024-02-26T10:42:42;8.80;;;4.78;;
15126;SDS011;7664;52.008;4.748;2024-02-26T10:45:12;6.82;;;4.38;;
15126;SDS011;7664;52.008;4.748;2024-02-26T10:47:41;6.20;;;4.13;;
15126;SDS011;7664;52.008;4.748;2024-02-26T10:50:11;6.88;;;4.43;;
15126;SDS011;7664;52.008;4.748;2024-02-26T10:52:41;7.57;;;4.63;;
15126;SDS011;7664;52.008;4.748;2024-02-26T10:55:16;6.30;;;4.07;;
15126;SDS011;7664;52.008;4.748;2024-02-26T10:57:46;8.20;;;5.00;;
15126;SDS011;7664;52.008;4.748;2024-02-26T11:00:16;7.70;;;4.75;;
15126;SDS011;7664;52.008;4.748;2024-02-26T11:02:45;6.55;;;3.95;;
15126;SDS011;7664;52.008;4.748;2024-02-26T11:05:16;7.63;;;4.32;;
15126;SDS011;7664;52.008;4.748;2024-02-26T11:07:45;8.48;;;4.57;;
15126;SDS011;7664;52.008;4.748;2024-02-26T11:10:14;10.05;;;4.50;;
15126;SDS011;7664;52.008;4.748;2024-02-26T11:12:43;6.15;;;4.00;;
15126;SDS011;7664;52.008;4.748;2024-02-26T11:15:12;6.90;;;4.82;;
15126;SDS011;7664;52.008;4.748;2024-02-26T11:17:42;6.97;;;4.28;;
15126;SDS011;7664;52.008;4.748;2024-02-26T11:20:11;7.18;;;4.72;;
15126;SDS011;7664;52.008;4.748;2024-02-26T11:22:42;6.53;;;5.00;;
15126;SDS011;7664;52.008;4.748;2024-02-26T11:25:10;6.35;;;3.90;;
15126;SDS011;7664;52.008;4.748;2024-02-26T11:27:41;8.40;;;4.30;;
15126;SDS011;7664;52.008;4.748;2024-02-26T11:30:10;6.18;;;4.43;;
15126;SDS011;7664;52.008;4.748;2024-02-26T11:32:40;8.15;;;4.45;;
15126;SDS011;7664;52.008;4.748;2024-02-26T11:35:12;6.78;;;4.70;;
15126;SDS011;7664;52.008;4.748;2024-02-26T11:37:52;8.43;;;4.55;;
15126;SDS011;7664;52.008;4.748;2024-02-26T11:40:21;6.75;;;4.30;;
15126;SDS011;7664;52.008;4.748;2024-02-26T11:42:50;7.20;;;4.50;;
15126;SDS011;7664;52.008;4.748;2024-02-26T11:45:47;8.73;;;4.35;;
15126;SDS011;7664;52.008;4.748;2024-02-26T11:48:16;7.93;;;5.72;;
15126;SDS011;7664;52.008;4.748;2024-02-26T11:50:48;5.60;;;4.07;;
15126;SDS011;7664;52.008;4.748;2024-02-26T11:53:22;6.15;;;4.32;;
15126;SDS011;7664;52.008;4.748;2024-02-26T11:58:39;6.85;;;4.63;;
15126;SDS011;7664;52.008;4.748;2024-02-26T12:03:51;8.73;;;5.05;;
15126;SDS011;7664;52.008;4.748;2024-02-26T12:06:22;5.90;;;3.83;;
15126;SDS011;7664;52.008;4.748;2024-02-26T12:08:53;9.40;;;5.05;;
15126;SDS011;7664;52.008;4.748;2024-02-26T12:11:22;6.80;;;4.43;;
15126;SDS011;7664;52.008;4.748;2024-02-26T12:13:50;6.07;;;4.55;;
15126;SDS011;7664;52.008;4.748;2024-02-26T12:19:03;6.82;;;4.00;;
15126;SDS011;7664;52.008;4.748;2024-02-26T12:21:33;7.63;;;4.05;;
15126;SDS011;7664;52.008;4.748;2024-02-26T12:24:13;8.82;;;4.13;;
15126;SDS011;7664;52.008;4.748;2024-02-26T12:26:42;6.47;;;3.97;;
15126;SDS011;7664;52.008;4.748;2024-02-26T12:29:12;6.13;;;3.83;;
15126;SDS011;7664;52.008;4.748;2024-02-26T12:31:40;7.32;;;3.67;;
15126;SDS011;7664;52.008;4.748;2024-02-26T12:34:09;5.63;;;3.85;;
15126;SDS011;7664;52.008;4.748;2024-02-26T12:36:38;6.22;;;3.42;;
15126;SDS011;7664;52.008;4.748;2024-02-26T12:39:07;7.82;;;4.35;;
15126;SDS011;7664;52.008;4.748;2024-02-26T12:41:38;8.50;;;4.95;;
15126;SDS011;7664;52.008;4.748;2024-02-26T12:44:07;5.05;;;3.58;;
15126;SDS011;7664;52.008;4.748;2024-02-26T12:46:36;5.65;;;3.60;;
15126;SDS011;7664;52.008;4.748;2024-02-26T12:49:04;5.63;;;3.85;;
15126;SDS011;7664;52.008;4.748;2024-02-26T12:51:34;6.30;;;3.90;;
15126;SDS011;7664;52.008;4.748;2024-02-26T12:54:03;5.53;;;3.72;;
15126;SDS011;7664;52.008;4.748;2024-02-26T12:56:32;5.50;;;3.80;;
15126;SDS011;7664;52.008;4.748;2024-02-26T12:59:02;4.85;;;4.05;;
15126;SDS011;7664;52.008;4.748;2024-02-26T13:01:31;3.95;;;2.78;;
15126;SDS011;7664;52.008;4.748;2024-02-26T13:03:59;6.60;;;4.32;;
15126;SDS011;7664;52.008;4.748;2024-02-26T13:06:33;6.50;;;4.15;;
15126;SDS011;7664;52.008;4.748;2024-02-26T13:09:02;8.13;;;3.95;;
15126;SDS011;7664;52.008;4.748;2024-02-26T13:11:31;6.63;;;3.72;;
15126;SDS011;7664;52.008;4.748;2024-02-26T13:13:59;3.97;;;2.75;;
15126;SDS011;7664;52.008;4.748;2024-02-26T13:16:33;7.03;;;3.53;;
15126;SDS011;7664;52.008;4.748;2024-02-26T13:19:08;5.50;;;3.97;;
15126;SDS011;7664;52.008;4.748;2024-02-26T13:21:36;6.25;;;4.00;;
15126;SDS011;7664;52.008;4.748;2024-02-26T13:24:05;7.70;;;4.25;;
15126;SDS011;7664;52.008;4.748;2024-02-26T13:26:34;4.68;;;3.47;;
15126;SDS011;7664;52.008;4.748;2024-02-26T13:29:03;6.55;;;3.53;;
15126;SDS011;7664;52.008;4.748;2024-02-26T13:31:31;5.13;;;3.33;;
15126;SDS011;7664;52.008;4.748;2024-02-26T13:34:01;4.93;;;3.10;;
15126;SDS011;7664;52.008;4.748;2024-02-26T13:36:30;4.97;;;3.30;;
15126;SDS011;7664;52.008;4.748;2024-02-26T13:38:59;5.47;;;3.42;;
15126;SDS011;7664;52.008;4.748;2024-02-26T13:41:31;5.05;;;3.50;;
15126;SDS011;7664;52.008;4.748;2024-02-26T13:44:00;5.47;;;3.70;;
15126;SDS011;7664;52.008;4.748;2024-02-26T13:46:29;5.40;;;2.60;;
15126;SDS011;7664;52.008;4.748;2024-02-26T13:48:58;4.47;;;3.00;;
15126;SDS011;7664;52.008;4.748;2024-02-26T13:51:28;4.82;;;3.08;;
15126;SDS011;7664;52.008;4.748;2024-02-26T13:54:01;4.75;;;2.45;;
15126;SDS011;7664;52.008;4.748;2024-02-26T13:56:30;3.80;;;2.63;;
15126;SDS011;7664;52.008;4.748;2024-02-26T13:58:59;7.97;;;2.47;;
15126;SDS011;7664;52.008;4.748;2024-02-26T14:01:30;4.25;;;2.60;;
15126;SDS011;7664;52.008;4.748;2024-02-26T14:04:00;3.65;;;2.45;;
15126;SDS011;7664;52.008;4.748;2024-02-26T14:06:33;6.22;;;2.67;;
15126;SDS011;7664;52.008;4.748;2024-02-26T14:09:02;3.78;;;2.65;;
15126;SDS011;7664;52.008;4.748;2024-02-26T14:11:31;3.25;;;2.25;;
15126;SDS011;7664;52.008;4.748;2024-02-26T14:14:01;3.60;;;2.28;;
15126;SDS011;7664;52.008;4.748;2024-02-26T14:16:30;4.05;;;2.22;;
15126;SDS011;7664;52.008;4.748;2024-02-26T14:18:58;4.43;;;2.63;;
15126;SDS011;7664;52.008;4.748;2024-02-26T14:21:27;3.70;;;2.17;;
15126;SDS011;7664;52.008;4.748;2024-02-26T14:23:57;3.88;;;2.30;;
15126;SDS011;7664;52.008;4.748;2024-02-26T14:26:26;5.07;;;2.25;;
15126;SDS011;7664;52.008;4.748;2024-02-26T14:28:55;4.13;;;1.98;;
15126;SDS011;7664;52.008;4.748;2024-02-26T14:31:23;4.28;;;2.13;;
15126;SDS011;7664;52.008;4.748;2024-02-26T14:33:52;5.93;;;2.22;;
15126;SDS011;7664;52.008;4.748;2024-02-26T14:36:21;4.07;;;2.22;;
15126;SDS011;7664;52.008;4.748;2024-02-26T14:38:50;4.70;;;2.10;;
15126;SDS011;7664;52.008;4.748;2024-02-26T14:41:20;3.08;;;2.30;;
15126;SDS011;7664;52.008;4.748;2024-02-26T14:43:49;2.78;;;2.08;;
15126;SDS011;7664;52.008;4.748;2024-02-26T14:46:18;4.05;;;2.40;;
15126;SDS011;7664;52.008;4.748;2024-02-26T14:48:46;3.30;;;2.05;;
15126;SDS011;7664;52.008;4.748;2024-02-26T14:51:15;5.35;;;2.45;;
15126;SDS011;7664;52.008;4.748;2024-02-26T14:53:44;5.15;;;2.50;;
15126;SDS011;7664;52.008;4.748;2024-02-26T14:56:13;5.32;;;2.25;;
15126;SDS011;7664;52.008;4.748;2024-02-26T14:58:42;2.92;;;2.25;;
15126;SDS011;7664;52.008;4.748;2024-02-26T15:01:12;4.20;;;2.50;;
15126;SDS011;7664;52.008;4.748;2024-02-26T15:03:41;4.32;;;2.28;;
15126;SDS011;7664;52.008;4.748;2024-02-26T15:06:10;4.15;;;2.30;;
15126;SDS011;7664;52.008;4.748;2024-02-26T15:08:40;4.10;;;2.15;;
15126;SDS011;7664;52.008;4.748;2024-02-26T15:11:08;5.15;;;2.40;;
15126;SDS011;7664;52.008;4.748;2024-02-26T15:13:37;4.72;;;2.45;;
15126;SDS011;7664;52.008;4.748;2024-02-26T15:16:07;11.98;;;4.38;;